Latest Weather Observations for Richmond

IDN60901

Issued at 11:21 pm EST Thursday 25 August 2016 (issued every 10 minutes, with the page automatically refreshed every 10 minutes)

About weather observations | Map of Sydney area stations | Latest observations for Sydney area | Other Formats
Station Details ID: 067105 Name: RICHMOND RAAF Lat: -33.60 Lon: 150.78 Height: 19.0 m
Data from the previous 72 hours. | See also: Recent months at Richmond
Date/Time
EST
Temp
°C
App
Temp
°C
Dew
Point
°C
Rel
Hum
%
Delta-T
°C
Wind Press
QNH
hPa
Press
MSL
hPa
Rain since
9am
mm
Dir  Spd
km/h
Gust
km/h
Spd
kts
Gust
kts
25/11:00pm 10.0 5.7 0.9 53 3.7 SW 13 19 7 10 1015.1 1015.1 0.0
25/10:30pm 9.4 6.3 1.6 58 3.2 SE 7 9 4 5 1015.0 1015.0 0.0
25/10:00pm 10.6 6.8 1.7 54 3.7 SW 11 17 6 9 1015.0 1015.0 0.0
25/09:30pm 11.0 6.6 2.8 57 3.6 WSW 15 20 8 11 1014.7 1014.7 0.0
25/09:00pm 11.0 6.8 3.8 61 3.2 WSW 15 20 8 11 1014.6 1014.6 0.0
25/08:30pm 11.5 5.7 4.3 61 3.2 W 24 28 13 15 1014.5 1014.5 0.0
25/08:00pm 10.3 7.0 4.5 67 2.6 W 11 17 6 9 1014.2 1014.2 0.0
25/07:30pm 11.3 8.4 4.5 63 3.1 W 9 15 5 8 1013.9 1013.9 0.0
25/07:00pm 11.4 7.9 3.7 59 3.4 WNW 11 15 6 8 1013.5 1013.5 0.0
25/06:30pm 11.5 8.5 4.3 61 3.2 WNW 9 11 5 6 1013.1 1013.1 0.0
25/06:00pm 12.1 9.4 3.9 57 3.7 WSW 7 11 4 6 1012.4 1012.4 0.0
25/05:30pm 13.9 9.9 3.1 48 4.8 SW 13 17 7 9 1012.1 1012.1 0.0
25/05:00pm 15.8 10.7 3.3 43 5.7 SW 19 26 10 14 1011.7 1011.7 0.0
25/04:30pm 16.4 13.2 5.1 47 5.4 SW 11 19 6 10 1011.1 1011.1 0.0
25/04:00pm 16.0 12.3 4.7 47 5.3 SW 13 17 7 9 1010.8 1010.8 0.0
25/03:30pm 16.4 13.5 4.4 45 5.6 S 9 13 5 7 1010.5 1010.5 0.0
25/03:00pm 16.6 12.9 4.3 44 5.8 SSW 13 19 7 10 1010.3 1010.3 0.0
25/02:30pm 17.6 14.7 6.5 48 5.5 SW 11 17 6 9 1010.1 1010.1 0.0
25/02:00pm 16.4 13.7 5.4 48 5.3 S 9 13 5 7 1010.0 1010.0 0.0
25/01:30pm 17.2 14.3 6.7 50 5.2 S 11 24 6 13 1009.9 1009.9 0.0
25/01:00pm 16.3 13.8 6.4 52 4.8 SSW 9 17 5 9 1010.1 1010.1 0.0
25/12:30pm 15.9 13.6 5.5 50 5.0 SSE 7 15 4 8 1010.3 1010.3 0.0
25/12:00pm 15.3 12.3 5.8 53 4.6 SSW 11 19 6 10 1010.6 1010.6 0.0
25/11:30am 14.8 11.2 4.8 51 4.7 SSW 13 20 7 11 1010.7 1010.7 0.0
25/11:00am 14.7 10.6 6.3 57 4.1 S 17 24 9 13 1010.9 1010.9 0.0
25/10:30am 14.5 10.8 6.3 58 3.9 SSW 15 24 8 13 1011.2 1011.2 0.0
25/10:00am 13.1 11.4 7.5 69 2.7 SSW 6 7 3 4 1011.3 1011.3 0.0
25/09:30am 11.9 10.8 6.8 71 2.4 WNW 2 11 1 6 1011.2 1011.2 0.0
25/09:00am 11.1 9.4 7.6 79 1.7 NW 6 9 3 5 1011.2 1011.2 31.6
25/08:30am 10.3 9.0 7.7 84 1.2 WSW 4 6 2 3 1011.1 1011.1 31.6
25/08:00am 9.5 8.9 7.4 87 1.0 CALM 0 0 0 0 1010.9 1010.9 31.6
25/07:30am 9.1 7.1 7.1 87 0.9 SW 7 9 4 5 1010.6 1010.6 31.6
25/07:00am 8.9 6.5 7.0 88 0.9 W 9 13 5 7 1010.1 1010.1 31.2
25/06:30am 8.8 5.9 6.6 86 1.0 WSW 11 15 6 8 1009.7 1009.7 31.2
25/06:00am 9.2 5.7 5.6 78 1.6 WSW 13 20 7 11 1009.4 1009.4 31.0
25/05:30am 9.3 5.9 5.9 79 1.6 WSW 13 19 7 10 1008.9 1008.9 31.0
25/05:00am 9.4 6.0 5.8 78 1.6 WSW 13 17 7 9 1009.0 1009.0 31.0
25/04:30am 9.4 6.0 5.9 79 1.6 SW 13 20 7 11 1008.6 1008.6 31.0
25/04:00am 9.4 5.7 6.1 80 1.5 SW 15 19 8 10 1008.4 1008.4 31.0
25/03:30am 9.3 6.4 6.6 83 1.3 SW 11 15 6 8 1008.2 1008.2 31.0
25/03:00am 9.3 6.0 6.6 83 1.3 WSW 13 19 7 10 1007.9 1007.9 31.0
25/02:30am 9.1 5.5 6.7 85 1.1 SW 15 20 8 11 1007.9 1007.9 31.0
25/02:00am 9.1 6.0 7.2 88 0.9 WSW 13 19 7 10 1008.0 1008.0 31.0
25/01:30am 9.2 5.7 7.2 87 0.9 WSW 15 19 8 10 1008.3 1008.3 31.0
25/01:00am 8.9 5.8 7.2 89 0.8 WSW 13 17 7 9 1008.3 1008.3 31.0
25/12:30am 9.1 5.6 7.1 87 0.9 WSW 15 20 8 11 1008.2 1008.2 30.6
25/12:00am 8.7 5.6 7.2 90 0.7 SW 13 19 7 10 1008.0 1008.0 30.6
 
Date/Time
EST
Temp
°C
App
Temp
°C
Dew
Point
°C
Rel
Hum
%
Delta-T
°C
Wind Press
QNH
hPa
Press
MSL
hPa
Rain since
9am
mm
Dir  Spd
km/h
Gust
km/h
Spd
kts
Gust
kts
24/11:30pm 8.6 5.2 7.5 93 0.5 SW 15 19 8 10 1008.2 1008.2 30.6
24/11:00pm 8.5 4.3 7.4 93 0.5 SW 19 28 10 15 1008.2 1008.2 30.6
24/10:30pm 8.7 4.5 7.3 91 0.7 SW 19 24 10 13 1008.2 1008.2 30.2
24/10:00pm 8.6 4.3 7.2 91 0.7 SW 19 32 10 17 1008.3 1008.3 30.2
24/09:30pm 8.9 3.8 7.5 91 0.7 SW 24 35 13 19 1008.6 1008.6 29.6
24/09:00pm 9.7 5.7 8.9 95 0.4 SW 20 26 11 14 1008.6 1008.6 29.4
24/08:30pm 10.3 6.0 9.5 95 0.4 SW 22 33 12 18 1008.1 1008.1 27.8
24/08:00pm 10.6 7.1 10.3 98 0.2 SW 19 28 10 15 1008.3 1008.3 25.8
24/07:35pm 10.7 6.3 10.4 98 0.2 SW 24 35 13 19 1007.8 1007.8 24.6
24/07:30pm 10.7 6.7 10.4 98 0.2 SW 22 35 12 19 1007.7 1007.7 24.6
24/07:14pm 10.8 6.4 10.5 98 0.2 SW 24 35 13 19 1007.9 1007.9 24.2
24/07:00pm 10.8 6.4 10.5 98 0.2 SSW 24 37 13 20 1007.6 1007.6 23.6
24/06:30pm 11.4 8.0 11.1 98 0.2 SSW 20 26 11 14 1007.5 1007.5 18.6
24/06:00pm 11.7 9.3 11.5 99 0.1 SSW 15 22 8 12 1007.0 1007.0 18.0
24/05:47pm 11.7 9.7 11.5 99 0.1 SSW 13 17 7 9 1006.9 1006.9 18.0
24/05:30pm 11.8 10.2 11.6 99 0.1 SW 11 15 6 8 1007.0 1007.0 17.2
24/05:00pm 11.6 9.2 11.4 99 0.1 WSW 15 20 8 11 1006.4 1006.4 13.8
24/04:30pm 11.8 10.2 11.6 99 0.1 SW 11 15 6 8 1006.7 1006.7 9.6
24/04:00pm 11.9 10.7 11.6 98 0.2 SW 9 13 5 7 1007.2 1007.2 8.0
24/03:41pm 11.8 9.4 11.5 98 0.2 SSW 15 20 8 11 1007.2 1007.2 7.6
24/03:30pm 11.9 9.2 11.6 98 0.2 S 17 26 9 14 1007.2 1007.2 7.6
24/03:00pm 11.9 9.2 11.6 98 0.2 SSW 17 24 9 13 1007.4 1007.4 7.6
24/02:43pm 12.2 9.9 11.9 98 0.2 S 15 26 8 14 1007.8 1007.8 7.6
24/02:30pm 12.1 9.8 11.8 98 0.2 SSW 15 22 8 12 1007.8 1007.8 7.6
24/02:23pm 12.0 9.3 11.7 98 0.2 SSW 17 22 9 12 1008.1 1008.1 7.4
24/02:05pm 11.8 9.4 11.5 98 0.2 SSW 15 20 8 11 1008.7 1008.7 7.0
24/02:00pm 11.8 9.0 11.5 98 0.2 SW 17 24 9 13 1008.9 1008.9 6.8
24/01:30pm 12.1 9.1 11.8 98 0.2 SW 19 32 10 17 1009.1 1009.1 4.8
24/01:28pm 12.1 9.4 11.8 98 0.2 SW 17 32 9 17 1009.0 1009.0 4.8
24/01:06pm 12.1 9.1 11.8 98 0.2 SW 19 22 10 12 1009.0 1009.0 4.8
24/01:00pm 12.1 9.1 11.8 98 0.2 SW 19 22 10 12 1009.2 1009.2 4.8
24/12:43pm 12.2 9.6 11.9 98 0.2 SW 17 22 9 12 1009.5 1009.5 4.6
24/12:30pm 12.4 10.2 12.1 98 0.2 SSW 15 19 8 10 1009.7 1009.7 4.6
24/12:00pm 12.2 10.3 11.9 98 0.2 SSW 13 17 7 9 1010.4 1010.4 4.2
24/11:30am 11.9 9.6 11.6 98 0.2 SW 15 20 8 11 1010.9 1010.9 4.0
24/11:00am 11.8 9.8 11.5 98 0.2 SSW 13 17 7 9 1011.8 1011.8 3.6
24/10:34am 11.7 9.3 11.4 98 0.2 SSW 15 20 8 11 1012.8 1012.8 3.2
24/10:30am 11.5 9.0 11.2 98 0.2 SSW 15 20 8 11 1012.9 1012.9 3.2
24/10:29am 11.5 9.0 11.2 98 0.2 SSW 15 20 8 11 1012.9 1012.9 3.2
24/10:27am 11.6 9.2 11.3 98 0.2 SSW 15 20 8 11 1013.0 1013.0 3.0
24/10:15am 11.4 8.9 11.1 98 0.2 SW 15 20 8 11 1013.4 1013.4 2.6
24/10:09am 11.5 9.0 11.2 98 0.2 SW 15 20 8 11 1013.3 1013.3 2.6
24/10:03am 11.7 9.7 11.4 98 0.2 SW 13 17 7 9 1013.6 1013.6 2.2
24/10:00am 11.4 9.3 11.1 98 0.2 SW 13 17 7 9 1013.7 1013.7 2.0
24/09:30am 11.3 9.9 11.0 98 0.2 WSW 9 15 5 8 1013.8 1013.8 0.6
24/09:28am 11.4 10.1 11.1 98 0.2 WSW 9 15 5 8 1013.7 1013.7 0.6
24/09:16am 11.3 9.9 11.0 98 0.2 SW 9 13 5 7 1013.4 1013.4 0.2
24/09:00am 11.3 9.5 11.0 98 0.2 WSW 11 13 6 7 1013.8 1013.8 0.6
24/08:44am 11.2 9.8 10.9 98 0.2 SW 9 11 5 6 1013.7 1013.7 0.2
24/08:30am 11.1 10.0 10.8 98 0.2 SSW 7 11 4 6 1013.6 1013.6 0.2
24/08:22am 11.0 9.9 10.7 98 0.2 SSW 7 11 4 6 1013.7 1013.7 0.2
24/08:00am 10.9 9.8 10.6 98 0.2 WSW 7 9 4 5 1014.0 1014.0 0.2
24/07:44am 10.7 10.1 10.4 98 0.2 SW 4 9 2 5 1013.8 1013.8 0.2
24/07:30am 10.6 9.0 10.3 98 0.2 SW 9 13 5 7 1013.9 1013.9 0.2
24/07:00am 10.6 8.6 10.3 98 0.2 SW 11 15 6 8 1013.7 1013.7 0.2
24/06:54am 10.6 8.6 10.3 98 0.2 SW 11 15 6 8 1013.6 1013.6 0.2
24/06:36am 10.7 9.5 10.2 97 0.3 SW 7 9 4 5 1014.2 1014.2 0.2
24/06:30am 10.7 9.1 10.2 97 0.3 SW 9 11 5 6 1014.4 1014.4 0.0
24/06:19am 10.7 9.1 10.1 96 0.3 SW 9 13 5 7 1014.1 1014.1 0.0
24/06:10am 10.7 9.0 9.9 95 0.4 SW 9 13 5 7 1013.8 1013.8 0.0
24/06:00am 10.8 9.5 9.9 94 0.5 SW 7 9 4 5 1014.0 1014.0 0.0
24/05:54am 10.9 9.2 9.7 92 0.6 SW 9 13 5 7 1014.3 1014.3 0.0
24/05:41am 11.2 9.4 9.6 90 0.8 SW 9 13 5 7 1014.0 1014.0 0.0
24/05:30am 11.1 9.7 9.5 90 0.8 WSW 7 11 4 6 1013.8 1013.8 0.0
24/05:00am 11.2 11.0 9.1 87 1.0 CALM 0 0 0 0 1014.1 1014.1 0.0
24/04:30am 11.4 9.9 9.1 86 1.1 WSW 7 9 4 5 1013.9 1013.9 0.0
24/04:00am 11.1 9.7 9.4 89 0.9 WSW 7 9 4 5 1014.2 1014.2 0.0
24/03:30am 11.1 9.9 9.4 89 0.9 WSW 6 7 3 4 1014.7 1014.7 0.0
24/03:00am 11.2 9.7 9.1 87 1.0 WSW 7 9 4 5 1014.7 1014.7 0.0
24/02:30am 11.4 9.0 8.8 84 1.3 SW 11 13 6 7 1015.0 1015.0 0.0
24/02:00am 11.4 9.0 8.8 84 1.3 SW 11 17 6 9 1015.1 1015.1 0.0
24/01:30am 11.4 9.8 8.8 84 1.3 SSW 7 11 4 6 1014.7 1014.7 0.0
24/01:00am 10.8 9.3 9.1 89 0.8 W 7 9 4 5 1015.6 1015.6 0.0
24/12:30am 10.2 8.4 8.1 87 1.0 WSW 7 9 4 5 1015.5 1015.5 0.0
24/12:00am 10.9 9.4 8.3 84 1.3 SW 6 6 3 3 1015.8 1015.8 0.0
 
Date/Time
EST
Temp
°C
App
Temp
°C
Dew
Point
°C
Rel
Hum
%
Delta-T
°C
Wind Press
QNH
hPa
Press
MSL
hPa
Rain since
9am
mm
Dir  Spd
km/h
Gust
km/h
Spd
kts
Gust
kts
23/11:30pm 11.5 9.8 8.4 81 1.5 SSW 7 11 4 6 1016.0 1016.0 0.0
23/11:00pm 11.8 9.8 8.8 82 1.5 SW 9 11 5 6 1016.3 1016.3 0.0
23/10:30pm 12.1 10.5 8.8 80 1.6 SW 7 7 4 4 1016.4 1016.4 0.0
23/10:00pm 12.1 10.5 8.9 81 1.6 WSW 7 11 4 6 1016.6 1016.6 0.0
23/09:30pm 11.4 10.1 9.1 86 1.1 WSW 6 7 3 4 1016.4 1016.4 0.0
23/09:00pm 11.8 10.9 9.2 84 1.3 SSE 4 7 2 4 1015.6 1015.6 0.0
23/08:30pm 12.1 11.9 9.1 82 1.5 CALM 0 0 0 0 1016.2 1016.2 0.0
23/08:00pm 12.5 12.3 9.1 80 1.7 CALM 0 0 0 0 1016.4 1016.4 0.0
23/07:30pm 12.9 12.6 8.6 75 2.1 CALM 0 0 0 0 1016.6 1016.6 0.0
23/07:00pm 12.9 11.2 8.4 74 2.2 NE 7 9 4 5 1016.3 1016.3 0.0
23/06:30pm 13.3 11.6 8.4 72 2.4 NE 7 9 4 5 1016.1 1016.1 0.0
23/06:00pm 14.2 12.0 7.7 65 3.2 E 9 13 5 7 1016.0 1016.0 0.0
23/05:30pm 14.3 12.0 7.6 64 3.3 ESE 9 11 5 6 1015.6 1015.6 0.0
23/05:00pm 14.7 11.7 7.5 62 3.6 SE 13 17 7 9 1015.1 1015.1 0.0
23/04:30pm 15.2 10.6 6.7 57 4.1 SE 20 26 11 14 1014.3 1014.3 0.0
23/04:00pm 15.9 12.9 7.9 59 4.0 SSE 13 17 7 9 1013.9 1013.9 0.0
23/03:30pm 16.2 13.5 7.2 55 4.5 S 11 15 6 8 1014.0 1014.0 0.0
23/03:00pm 17.0 14.6 7.1 52 4.9 S 9 13 5 7 1013.3 1013.3 0.0
23/02:30pm 16.6 13.3 6.4 51 5.0 SSE 13 19 7 10 1013.0 1013.0 0.0
23/02:00pm 17.1 14.1 7.7 54 4.7 S 13 24 7 13 1013.0 1013.0 0.0
23/01:30pm 16.7 13.5 6.8 52 4.9 S 13 17 7 9 1013.5 1013.5 0.0
23/01:00pm 16.4 13.3 7.3 55 4.5 S 13 19 7 10 1014.1 1014.1 0.0
23/12:30pm 17.0 13.5 7.4 53 4.8 SSW 15 20 8 11 1014.1 1014.1 0.0
23/12:00pm 16.0 12.1 7.0 55 4.4 S 17 26 9 14 1014.3 1014.3 0.0
23/11:30am 15.9 12.3 6.9 55 4.4 SW 15 22 8 12 1014.7 1014.7 0.0
23/11:00am 16.1 12.4 7.8 58 4.2 SSW 17 26 9 14 1014.8 1014.8 0.0
23/10:30am 15.0 11.6 7.8 62 3.6 SSW 15 22 8 12 1015.4 1015.4 0.0
23/10:00am 13.8 11.8 8.6 71 2.6 WSW 9 15 5 8 1015.2 1015.2 0.0
23/09:30am 11.5 10.1 9.4 87 1.1 SSW 7 11 4 6 1014.9 1014.9 0.0
23/09:05am 9.6 9.5 9.3 98 0.1 CALM 0 0 0 0 1014.7 1014.7 0.0
23/09:02am 9.6 9.1 9.5 99 0.0 NNW 2 7 1 4 1014.7 1014.7 0.0
23/09:00am 9.5 9.0 9.4 99 0.0 NNW 2 9 1 5 1014.7 1014.7 3.0
23/08:46am 8.2 6.4 8.1 99 0.0 NW 7 11 4 6 1014.7 1014.7 3.0
23/08:41am 8.6 6.2 8.5 99 0.0 NW 11 15 6 8 1014.6 1014.6 3.0
23/08:30am 8.7 6.7 8.6 99 0.0 NNW 9 11 5 6 1014.4 1014.4 3.0
23/08:12am 8.4 8.0 8.3 99 0.0 CALM 0 0 0 0 1013.8 1013.8 3.0
23/08:06am 7.7 7.1 7.6 99 0.0 CALM 0 0 0 0 1013.8 1013.8 3.0
23/08:00am 7.6 7.0 7.5 99 0.0 CALM 0 4 0 2 1013.7 1013.7 3.0
23/07:30am 6.3 4.1 6.2 99 0.0 SE 7 9 4 5 1014.0 1014.0 3.0
23/07:00am 5.1 3.6 4.8 98 0.1 NE 2 7 1 4 1013.4 1013.4 3.0
23/06:30am 5.1 2.2 4.8 98 0.1 NE 9 11 5 6 1013.1 1013.1 3.0
23/06:00am 4.7 2.7 4.4 98 0.1 ESE 4 7 2 4 1012.8 1012.8 3.0
23/05:30am 5.8 3.5 5.5 98 0.1 ESE 7 11 4 6 1012.4 1012.4 3.0
23/05:00am 5.0 2.5 4.7 98 0.1 S 7 9 4 5 1012.3 1012.3 3.0
23/04:30am 5.4 4.3 5.1 98 0.1 CALM 0 0 0 0 1012.1 1012.1 3.0
23/04:00am 6.1 5.1 5.8 98 0.1 CALM 0 0 0 0 1011.9 1011.9 3.0
23/03:30am 7.3 6.2 7.0 98 0.1 N 2 6 1 3 1011.9 1011.9 3.0
23/03:00am 7.6 5.3 7.3 98 0.1 NNW 9 13 5 7 1011.9 1011.9 3.0
23/02:33am 7.6 5.3 7.3 98 0.1 NNW 9 13 5 7 1012.1 1012.1 3.0
23/02:30am 7.4 5.4 7.1 98 0.1 N 7 11 4 6 1012.1 1012.1 3.0
23/02:00am 7.4 6.3 7.1 98 0.1 SSW 2 7 1 4 1012.1 1012.1 3.0
23/01:36am 8.2 7.3 7.9 98 0.1 SSW 2 6 1 3 1012.4 1012.4 3.0
23/01:30am 8.2 7.0 7.9 98 0.1 SSW 4 6 2 3 1012.5 1012.5 3.0
23/01:04am 8.5 6.8 8.2 98 0.1 SSW 7 9 4 5 1012.8 1012.8 3.0
23/01:00am 8.4 6.6 8.1 98 0.1 SSW 7 9 4 5 1012.7 1012.7 3.0
23/12:50am 8.6 6.9 8.3 98 0.1 SSW 7 9 4 5 1012.6 1012.6 3.0
23/12:30am 8.9 8.2 8.6 98 0.1 W 2 6 1 3 1012.6 1012.6 3.0
23/12:00am 8.6 6.5 8.3 98 0.1 NE 9 9 5 5 1012.7 1012.7 3.0
 
Date/Time
EST
Temp
°C
App
Temp
°C
Dew
Point
°C
Rel
Hum
%
Delta-T
°C
Wind Press
QNH
hPa
Press
MSL
hPa
Rain since
9am
mm
Dir  Spd
km/h
Gust
km/h
Spd
kts
Gust
kts
22/11:30pm 9.1 8.5 8.8 98 0.1 NE 2 7 1 4 1012.7 1012.7 3.0

Latest Capital City Observations: Canberra | Sydney | Melbourne | Brisbane | Adelaide | Perth | Hobart | Darwin

Other Formats:

Comma delimited format used in spreadsheet applications
http://www.bom.gov.au/fwo/IDN60901/IDN60901.95753.axf

JavaScript Object Notation format (JSON) in row-major order
http://www.bom.gov.au/fwo/IDN60901/IDN60901.95753.json